Time;durP1;ratioP1;P1;durP2;ratioP2;P2;SDS_P1;SDS_P2;PMS_P1;PMS_P2;Temp;Humidity;BMP_temperature;BMP_pressure;BME280_temperature;BME280_humidity;BME280_pressure;Samples;Min_cycle;Max_cycle;Signal;HPM_P1;HPM_P2
2022/07/26 00:00:09;;;;;;;4.85;1.83;;;;;;;;;;4922871;28;20227;-82
2022/07/26 00:02:35;;;;;;;4.28;1.85;;;;;;;;;;4886403;29;20584;-85
2022/07/26 00:05:00;;;;;;;4.07;1.70;;;;;;;;;;4891151;29;20279;-83
2022/07/26 00:07:26;;;;;;;4.20;1.60;;;;;;;;;;4906228;29;20574;-84
2022/07/26 00:09:51;;;;;;;5.00;1.63;;;;;;;;;;4906646;29;20598;-83
2022/07/26 00:12:17;;;;;;;6.82;1.88;;;;;;;;;;4905849;28;20231;-81
2022/07/26 00:14:42;;;;;;;3.67;1.63;;;;;;;;;;4907817;29;20227;-83
2022/07/26 00:17:11;;;;;;;5.35;1.70;;;;;;;;;;4905649;28;20321;-79
2022/07/26 00:19:39;;;;;;;4.15;1.60;;;;;;;;;;4922129;29;20231;-84
2022/07/26 00:24:51;;;;;;;4.65;1.73;;;;;;;;;;4929274;29;20322;-81
2022/07/26 00:27:16;;;;;;;5.65;1.92;;;;;;;;;;4907484;28;20333;-82
2022/07/26 00:29:42;;;;;;;5.53;1.60;;;;;;;;;;4896485;29;20251;-82
2022/07/26 00:32:07;;;;;;;5.53;1.70;;;;;;;;;;4923216;28;20281;-82
2022/07/26 00:34:33;;;;;;;3.63;1.67;;;;;;;;;;4923236;29;20246;-82
2022/07/26 00:36:58;;;;;;;4.57;1.70;;;;;;;;;;4908144;29;20608;-83
2022/07/26 00:39:24;;;;;;;5.38;1.45;;;;;;;;;;4922076;28;20221;-83
2022/07/26 00:41:49;;;;;;;4.57;1.77;;;;;;;;;;4906738;29;20231;-82
2022/07/26 00:44:17;;;;;;;5.15;1.60;;;;;;;;;;4921679;28;20313;-82
2022/07/26 00:46:45;;;;;;;4.75;1.77;;;;;;;;;;4919427;29;20226;-82
2022/07/26 00:49:10;;;;;;;4.70;1.80;;;;;;;;;;4908508;28;20230;-83
2022/07/26 00:51:38;;;;;;;4.45;1.52;;;;;;;;;;4921702;29;20227;-82
2022/07/26 00:54:04;;;;;;;3.55;1.52;;;;;;;;;;4905845;28;20229;-82
2022/07/26 00:56:31;;;;;;;7.32;1.80;;;;;;;;;;4934048;29;20218;-82
2022/07/26 00:58:56;;;;;;;5.07;1.75;;;;;;;;;;4921075;29;20255;-84
2022/07/26 01:01:22;;;;;;;4.22;1.50;;;;;;;;;;4908307;28;20283;-83
2022/07/26 01:03:50;;;;;;;4.10;1.77;;;;;;;;;;4906670;29;20303;-83
2022/07/26 01:06:15;;;;;;;3.92;1.58;;;;;;;;;;4923562;28;20223;-82
2022/07/26 01:08:41;;;;;;;4.25;1.60;;;;;;;;;;4927721;29;20223;-83
2022/07/26 01:11:06;;;;;;;7.45;2.22;;;;;;;;;;4924384;28;20231;-82
2022/07/26 01:13:33;;;;;;;5.63;2.10;;;;;;;;;;4908172;29;20230;-82
2022/07/26 01:15:58;;;;;;;3.05;1.60;;;;;;;;;;4927627;29;20282;-83
2022/07/26 01:18:24;;;;;;;5.30;2.00;;;;;;;;;;4940152;29;20243;-82
2022/07/26 01:20:49;;;;;;;4.53;1.80;;;;;;;;;;4906827;29;20254;-82
2022/07/26 01:23:17;;;;;;;4.00;1.60;;;;;;;;;;4903622;29;20257;-81
2022/07/26 01:25:45;;;;;;;5.25;2.00;;;;;;;;;;4941869;29;20285;-84
2022/07/26 01:28:10;;;;;;;3.80;1.90;;;;;;;;;;4880788;29;20219;-83
2022/07/26 01:30:36;;;;;;;4.25;1.80;;;;;;;;;;4922414;29;20738;-83
2022/07/26 01:33:06;;;;;;;6.18;2.15;;;;;;;;;;4925472;28;20298;-81
2022/07/26 01:35:31;;;;;;;5.88;1.83;;;;;;;;;;4925551;29;20231;-83
2022/07/26 01:37:59;;;;;;;4.80;1.70;;;;;;;;;;4938662;29;20322;-84
2022/07/26 01:40:27;;;;;;;7.00;2.05;;;;;;;;;;4903285;29;20227;-81
2022/07/26 01:42:53;;;;;;;5.97;1.85;;;;;;;;;;4919993;29;20307;-81
2022/07/26 01:45:18;;;;;;;3.97;1.73;;;;;;;;;;4926853;29;20219;-82
2022/07/26 01:47:48;;;;;;;7.20;1.70;;;;;;;;;;4916277;29;20223;-82
2022/07/26 01:50:16;;;;;;;3.80;1.67;;;;;;;;;;4943541;28;20226;-80
2022/07/26 01:52:42;;;;;;;8.18;2.10;;;;;;;;;;4943849;28;20249;-82
2022/07/26 01:55:08;;;;;;;5.90;2.08;;;;;;;;;;4913607;28;20654;-83
2022/07/26 01:57:33;;;;;;;4.07;1.75;;;;;;;;;;4925935;29;20230;-80
2022/07/26 01:59:59;;;;;;;9.60;1.90;;;;;;;;;;4909407;29;20228;-81
2022/07/26 02:02:25;;;;;;;4.72;1.70;;;;;;;;;;4926518;28;20229;-84
2022/07/26 02:05:00;;;;;;;4.72;1.77;;;;;;;;;;4911159;29;20249;-83
2022/07/26 02:07:30;;;;;;;3.42;1.70;;;;;;;;;;4927753;28;20226;-83
2022/07/26 02:09:55;;;;;;;5.30;1.98;;;;;;;;;;4909708;29;20231;-81
2022/07/26 02:12:23;;;;;;;3.83;1.83;;;;;;;;;;4922945;28;20242;-79
2022/07/26 02:14:51;;;;;;;4.28;1.85;;;;;;;;;;4926507;29;20307;-83
2022/07/26 02:17:19;;;;;;;4.72;2.00;;;;;;;;;;4894520;28;20227;-83
2022/07/26 02:19:44;;;;;;;3.65;1.80;;;;;;;;;;4926020;29;20223;-82
2022/07/26 02:22:10;;;;;;;8.88;2.10;;;;;;;;;;4903082;28;20762;-81
2022/07/26 02:24:36;;;;;;;3.45;1.70;;;;;;;;;;4924557;29;20223;-80
2022/07/26 02:27:06;;;;;;;7.57;2.60;;;;;;;;;;4915279;29;20263;-81
2022/07/26 02:29:34;;;;;;;5.88;2.28;;;;;;;;;;4912226;29;20237;-81
2022/07/26 02:31:59;;;;;;;6.72;2.15;;;;;;;;;;4928498;29;20238;-80
2022/07/26 02:34:25;;;;;;;6.40;2.30;;;;;;;;;;4911765;28;20227;-82
2022/07/26 02:36:50;;;;;;;5.63;2.10;;;;;;;;;;4958777;28;20250;-81
2022/07/26 02:39:16;;;;;;;7.28;1.80;;;;;;;;;;4929258;29;20240;-82
2022/07/26 02:41:41;;;;;;;7.43;2.05;;;;;;;;;;4941160;29;20242;-81
2022/07/26 02:44:07;;;;;;;7.78;2.53;;;;;;;;;;4913536;28;20302;-82
2022/07/26 02:46:33;;;;;;;6.55;2.40;;;;;;;;;;4933799;29;20230;-82
2022/07/26 02:48:59;;;;;;;8.25;2.10;;;;;;;;;;4927497;29;20230;-83
2022/07/26 02:51:26;;;;;;;5.93;2.15;;;;;;;;;;4911075;28;20302;-82
2022/07/26 02:53:53;;;;;;;7.13;2.38;;;;;;;;;;4919826;29;20745;-83
2022/07/26 02:56:19;;;;;;;11.05;2.50;;;;;;;;;;4908356;29;20222;-81
2022/07/26 02:58:45;;;;;;;7.47;2.35;;;;;;;;;;4940206;29;20226;-81
2022/07/26 03:01:10;;;;;;;7.50;2.00;;;;;;;;;;4908029;28;20290;-81
2022/07/26 03:03:36;;;;;;;4.88;2.13;;;;;;;;;;4923434;29;20219;-80
2022/07/26 03:06:02;;;;;;;7.10;2.50;;;;;;;;;;4916257;29;20254;-82
2022/07/26 03:08:30;;;;;;;4.40;2.30;;;;;;;;;;4942090;29;20251;-83
2022/07/26 03:11:00;;;;;;;5.57;2.25;;;;;;;;;;4908252;29;20226;-81
2022/07/26 03:13:26;;;;;;;5.47;2.00;;;;;;;;;;4920860;28;20250;-81
2022/07/26 03:15:54;;;;;;;8.52;2.17;;;;;;;;;;4903705;29;20231;-80
2022/07/26 03:18:21;;;;;;;5.72;2.22;;;;;;;;;;4907361;28;20234;-83
2022/07/26 03:20:48;;;;;;;10.82;2.15;;;;;;;;;;4928928;29;20258;-81
2022/07/26 03:23:18;;;;;;;10.77;1.95;;;;;;;;;;4937416;28;20684;-79
2022/07/26 03:25:44;;;;;;;4.55;2.08;;;;;;;;;;4923171;29;20228;-80
2022/07/26 03:28:11;;;;;;;10.95;2.50;;;;;;;;;;4922323;28;20225;-81
2022/07/26 03:30:37;;;;;;;7.32;2.67;;;;;;;;;;4953920;28;20772;-82
2022/07/26 03:33:03;;;;;;;5.63;2.22;;;;;;;;;;4920015;28;20227;-81
2022/07/26 03:35:28;;;;;;;7.32;2.50;;;;;;;;;;4910071;29;20222;-80
2022/07/26 03:37:53;;;;;;;9.38;2.38;;;;;;;;;;4903265;29;20231;-80
2022/07/26 03:40:21;;;;;;;4.38;2.20;;;;;;;;;;4940978;28;20257;-80
2022/07/26 03:42:50;;;;;;;10.25;2.45;;;;;;;;;;4922426;29;20299;-80
2022/07/26 03:45:16;;;;;;;8.55;1.88;;;;;;;;;;4905656;28;20234;-80
2022/07/26 03:47:41;;;;;;;4.25;1.95;;;;;;;;;;4909971;29;20294;-81
2022/07/26 03:50:09;;;;;;;5.55;2.38;;;;;;;;;;4907300;28;20287;-80
2022/07/26 03:52:35;;;;;;;5.85;2.40;;;;;;;;;;4920478;29;20242;-79
2022/07/26 03:56:27;;;;;;;8.13;2.40;;;;;;;;;;4931409;29;20257;-79
2022/07/26 03:57:47;;;;;;;6.57;2.30;;;;;;;;;;4952190;29;20235;-79
2022/07/26 04:00:13;;;;;;;9.35;2.28;;;;;;;;;;4921453;28;20219;-79
2022/07/26 04:02:39;;;;;;;8.10;2.42;;;;;;;;;;4909429;29;20234;-79
2022/07/26 04:05:05;;;;;;;8.55;2.60;;;;;;;;;;4936667;29;20226;-83
2022/07/26 04:07:30;;;;;;;6.88;2.42;;;;;;;;;;4903434;29;20233;-82
2022/07/26 04:09:56;;;;;;;8.55;2.10;;;;;;;;;;4935410;29;20231;-80
2022/07/26 04:12:21;;;;;;;6.80;2.15;;;;;;;;;;4955503;28;20286;-80
2022/07/26 04:14:47;;;;;;;5.07;2.25;;;;;;;;;;4927417;29;20288;-80
2022/07/26 04:17:14;;;;;;;6.25;2.30;;;;;;;;;;4924493;29;20692;-79
2022/07/26 04:19:40;;;;;;;9.70;2.50;;;;;;;;;;4955647;28;20234;-79
2022/07/26 04:22:07;;;;;;;7.18;2.28;;;;;;;;;;4954365;28;20223;-80
2022/07/26 04:24:33;;;;;;;7.38;2.63;;;;;;;;;;4937176;29;20601;-81
2022/07/26 04:26:58;;;;;;;11.88;2.50;;;;;;;;;;4920243;29;20231;-80
2022/07/26 04:29:26;;;;;;;10.40;2.30;;;;;;;;;;4899509;29;20220;-80
2022/07/26 04:31:51;;;;;;;8.57;2.83;;;;;;;;;;4905692;29;20226;-79
2022/07/26 04:34:22;;;;;;;7.10;2.60;;;;;;;;;;4943888;28;20222;-79
2022/07/26 04:36:47;;;;;;;6.80;2.10;;;;;;;;;;4956086;28;20230;-81
2022/07/26 04:39:28;;;;;;;6.22;2.28;;;;;;;;;;4898757;29;20235;-81
2022/07/26 04:41:53;;;;;;;6.57;2.47;;;;;;;;;;4923441;29;20344;-82
2022/07/26 04:44:19;;;;;;;8.38;2.40;;;;;;;;;;4914011;29;20223;-79
2022/07/26 04:46:46;;;;;;;8.50;2.28;;;;;;;;;;4912305;29;20277;-81
2022/07/26 04:49:14;;;;;;;5.35;1.90;;;;;;;;;;4942550;28;20218;-80
2022/07/26 04:51:42;;;;;;;7.10;2.50;;;;;;;;;;4945917;28;20304;-80
2022/07/26 04:54:10;;;;;;;4.95;2.10;;;;;;;;;;4941945;28;20230;-84
2022/07/26 04:56:38;;;;;;;8.18;2.70;;;;;;;;;;4938804;29;20286;-80
2022/07/26 04:59:04;;;;;;;6.07;2.10;;;;;;;;;;4942120;28;20242;-83
2022/07/26 05:01:29;;;;;;;5.95;2.15;;;;;;;;;;4926796;29;20219;-80
2022/07/26 05:03:55;;;;;;;7.20;2.50;;;;;;;;;;4936665;29;20231;-82
2022/07/26 05:06:25;;;;;;;8.57;2.50;;;;;;;;;;4926485;28;20294;-82
2022/07/26 05:08:50;;;;;;;3.92;2.05;;;;;;;;;;4929189;29;21244;-80
2022/07/26 05:11:18;;;;;;;4.30;1.88;;;;;;;;;;4942186;29;20278;-80
2022/07/26 05:13:44;;;;;;;6.63;2.15;;;;;;;;;;4923123;29;20234;-81
2022/07/26 05:16:10;;;;;;;6.28;2.55;;;;;;;;;;4914093;28;20229;-82
2022/07/26 05:18:35;;;;;;;6.90;2.40;;;;;;;;;;4900231;29;20233;-80
2022/07/26 05:21:01;;;;;;;7.50;2.20;;;;;;;;;;4922091;29;20227;-81
2022/07/26 05:23:29;;;;;;;8.90;2.13;;;;;;;;;;4927482;29;20703;-79
2022/07/26 05:25:55;;;;;;;6.45;2.42;;;;;;;;;;4933526;29;20298;-80
2022/07/26 05:28:21;;;;;;;7.47;2.53;;;;;;;;;;4946145;28;20774;-82
2022/07/26 05:30:49;;;;;;;7.22;2.30;;;;;;;;;;4911232;29;20286;-81
2022/07/26 05:33:19;;;;;;;7.93;2.50;;;;;;;;;;4927967;28;20227;-82
2022/07/26 05:35:45;;;;;;;10.27;2.33;;;;;;;;;;4924638;29;20226;-80
2022/07/26 05:38:11;;;;;;;5.60;2.47;;;;;;;;;;4921095;29;20235;-82
2022/07/26 05:40:36;;;;;;;7.45;2.25;;;;;;;;;;4925648;29;20219;-79
2022/07/26 05:43:04;;;;;;;6.35;2.33;;;;;;;;;;4914329;28;20616;-80
2022/07/26 05:45:29;;;;;;;6.25;2.70;;;;;;;;;;4925019;29;20237;-78
2022/07/26 05:47:56;;;;;;;6.10;2.50;;;;;;;;;;4926499;29;20592;-79
2022/07/26 05:50:21;;;;;;;4.47;2.30;;;;;;;;;;4910036;29;20339;-80
2022/07/26 05:52:49;;;;;;;5.38;2.38;;;;;;;;;;4939148;28;20238;-78
2022/07/26 05:55:17;;;;;;;5.97;2.53;;;;;;;;;;4916481;28;20286;-79
2022/07/26 05:57:46;;;;;;;8.75;3.60;;;;;;;;;;4941023;29;20763;-82
2022/07/26 06:00:12;;;;;;;8.55;4.43;;;;;;;;;;4928390;28;20227;-82
2022/07/26 06:02:38;;;;;;;8.68;3.33;;;;;;;;;;4911193;29;20223;-82
2022/07/26 06:05:04;;;;;;;6.45;2.70;;;;;;;;;;4926722;28;20234;-80
2022/07/26 06:07:30;;;;;;;3.78;2.42;;;;;;;;;;4925608;29;20218;-81
2022/07/26 06:09:55;;;;;;;5.60;2.55;;;;;;;;;;4918688;29;20281;-80
2022/07/26 06:12:23;;;;;;;9.15;3.10;;;;;;;;;;4923518;29;20223;-81
2022/07/26 06:14:49;;;;;;;6.32;3.05;;;;;;;;;;4911880;29;20372;-79
2022/07/26 06:17:14;;;;;;;6.05;2.40;;;;;;;;;;4910630;28;20219;-81
2022/07/26 06:19:42;;;;;;;6.65;2.72;;;;;;;;;;4917984;29;20684;-81
2022/07/26 06:22:07;;;;;;;6.97;2.83;;;;;;;;;;4909677;28;20245;-78
2022/07/26 06:24:33;;;;;;;8.57;2.55;;;;;;;;;;4895754;29;20231;-78
2022/07/26 06:26:59;;;;;;;6.22;2.63;;;;;;;;;;4912107;29;20218;-79
2022/07/26 06:29:24;;;;;;;6.88;2.75;;;;;;;;;;4924788;28;20219;-79
2022/07/26 06:31:50;;;;;;;4.43;2.45;;;;;;;;;;4904002;29;20281;-84
2022/07/26 06:34:15;;;;;;;8.65;3.17;;;;;;;;;;4928955;28;20292;-81
2022/07/26 06:36:41;;;;;;;7.38;3.20;;;;;;;;;;4943435;29;20274;-82
2022/07/26 06:39:07;;;;;;;7.63;2.70;;;;;;;;;;4910906;28;20318;-81
2022/07/26 06:41:32;;;;;;;4.63;2.53;;;;;;;;;;4905994;29;20250;-83
2022/07/26 06:43:58;;;;;;;5.95;2.63;;;;;;;;;;4941853;28;20235;-81
2022/07/26 06:46:24;;;;;;;4.38;3.00;;;;;;;;;;4923630;28;20254;-87
2022/07/26 06:48:49;;;;;;;5.70;2.65;;;;;;;;;;4911466;29;20230;-78
2022/07/26 06:51:17;;;;;;;5.45;2.65;;;;;;;;;;4941389;28;20223;-79
2022/07/26 06:53:43;;;;;;;6.00;3.05;;;;;;;;;;4919855;29;20537;-80
2022/07/26 06:56:08;;;;;;;4.32;2.60;;;;;;;;;;4907504;29;20286;-80
2022/07/26 06:58:34;;;;;;;6.15;2.55;;;;;;;;;;4931412;29;20255;-79
2022/07/26 07:01:02;;;;;;;5.10;2.70;;;;;;;;;;4908151;29;20293;-81
2022/07/26 07:03:27;;;;;;;7.28;2.90;;;;;;;;;;4903877;29;20230;-83
2022/07/26 07:05:55;;;;;;;5.60;3.13;;;;;;;;;;4945684;29;20229;-82
2022/07/26 07:08:23;;;;;;;6.63;3.40;;;;;;;;;;4913788;28;20305;-79
2022/07/26 07:10:50;;;;;;;4.28;2.55;;;;;;;;;;4905551;28;20251;-82
2022/07/26 07:13:15;;;;;;;11.93;3.67;;;;;;;;;;4925095;29;20678;-80
2022/07/26 07:15:41;;;;;;;4.93;1.90;;;;;;;;;;4912872;29;20222;-79
2022/07/26 07:18:06;;;;;;;4.47;2.05;;;;;;;;;;4925820;28;20256;-80
2022/07/26 07:20:34;;;;;;;5.03;1.65;;;;;;;;;;4924444;29;20239;-80
2022/07/26 07:23:05;;;;;;;3.50;2.03;;;;;;;;;;4909438;28;20356;-80
2022/07/26 07:25:31;;;;;;;4.05;1.90;;;;;;;;;;4905943;29;20251;-82
2022/07/26 07:28:01;;;;;;;2.67;1.90;;;;;;;;;;4926593;28;20206;-78
2022/07/26 07:30:27;;;;;;;5.18;2.15;;;;;;;;;;4937723;28;20227;-82
2022/07/26 07:32:52;;;;;;;5.30;2.50;;;;;;;;;;4929863;29;20270;-80
2022/07/26 07:35:22;;;;;;;3.75;2.13;;;;;;;;;;4916676;28;20234;-78
2022/07/26 07:37:48;;;;;;;6.93;2.60;;;;;;;;;;4929506;29;20236;-77
2022/07/26 07:40:14;;;;;;;3.42;2.13;;;;;;;;;;4917334;28;20341;-77
2022/07/26 07:42:41;;;;;;;5.93;2.65;;;;;;;;;;4909910;29;20231;-78
2022/07/26 07:45:08;;;;;;;4.22;3.03;;;;;;;;;;4947811;28;20223;-78
2022/07/26 07:47:38;;;;;;;4.78;2.70;;;;;;;;;;4915209;29;20227;-77
2022/07/26 07:50:06;;;;;;;5.65;3.03;;;;;;;;;;4943856;28;20230;-80
2022/07/26 07:52:32;;;;;;;5.63;2.95;;;;;;;;;;4915452;29;20230;-79
2022/07/26 07:54:58;;;;;;;6.95;2.95;;;;;;;;;;4966250;29;20293;-79
2022/07/26 07:57:23;;;;;;;5.60;2.90;;;;;;;;;;4931531;29;20219;-81
2022/07/26 07:59:50;;;;;;;3.80;2.55;;;;;;;;;;4944488;29;20239;-81
2022/07/26 08:02:16;;;;;;;5.80;3.13;;;;;;;;;;4927011;28;20243;-78
2022/07/26 08:04:41;;;;;;;8.90;2.70;;;;;;;;;;4916688;29;20219;-78
2022/07/26 08:07:07;;;;;;;2.78;2.30;;;;;;;;;;4932808;28;20282;-79
2022/07/26 08:09:35;;;;;;;4.85;2.60;;;;;;;;;;4953562;28;20222;-78
2022/07/26 08:12:01;;;;;;;3.38;2.55;;;;;;;;;;4935677;29;20258;-78
2022/07/26 08:14:30;;;;;;;4.57;2.22;;;;;;;;;;4947024;29;20243;-80
2022/07/26 08:16:55;;;;;;;3.85;1.98;;;;;;;;;;4912745;28;20211;-80
2022/07/26 08:19:21;;;;;;;5.30;1.70;;;;;;;;;;4937953;29;20238;-80
2022/07/26 08:21:47;;;;;;;4.30;1.63;;;;;;;;;;4914910;29;20282;-80
2022/07/26 08:24:13;;;;;;;2.20;1.30;;;;;;;;;;4910880;28;20292;-80
2022/07/26 08:26:38;;;;;;;5.53;1.08;;;;;;;;;;4928714;29;20684;-81
2022/07/26 08:29:07;;;;;;;2.72;1.00;;;;;;;;;;4946340;28;20243;-81
2022/07/26 08:31:35;;;;;;;2.42;1.00;;;;;;;;;;4910803;29;20250;-82
2022/07/26 08:34:00;;;;;;;2.33;0.80;;;;;;;;;;4923216;28;20756;-82
2022/07/26 08:36:26;;;;;;;2.35;0.88;;;;;;;;;;4922543;28;20242;-80
2022/07/26 08:38:51;;;;;;;3.15;0.77;;;;;;;;;;4957551;28;20254;-79
2022/07/26 08:41:17;;;;;;;1.25;0.70;;;;;;;;;;4947883;28;20229;-81
2022/07/26 08:43:45;;;;;;;2.17;0.80;;;;;;;;;;4916736;29;20287;-80
2022/07/26 08:46:11;;;;;;;1.40;0.75;;;;;;;;;;4918401;29;20214;-81
2022/07/26 08:48:38;;;;;;;4.60;0.82;;;;;;;;;;4925029;29;20256;-79
2022/07/26 08:51:07;;;;;;;1.80;0.70;;;;;;;;;;4928222;28;20771;-80
2022/07/26 08:53:35;;;;;;;1.85;0.63;;;;;;;;;;4924203;29;20314;-81
2022/07/26 08:56:07;;;;;;;1.30;0.70;;;;;;;;;;4909254;28;20218;-82
2022/07/26 08:58:35;;;;;;;1.77;0.70;;;;;;;;;;4891240;29;20227;-82
2022/07/26 09:01:06;;;;;;;3.30;0.80;;;;;;;;;;4904252;29;20227;-82
2022/07/26 09:03:31;;;;;;;1.30;0.60;;;;;;;;;;4926029;29;20688;-84
2022/07/26 09:06:21;;;;;;;1.70;0.75;;;;;;;;;;4913379;29;20233;-83
2022/07/26 09:08:49;;;;;;;2.10;0.50;;;;;;;;;;4908965;29;20314;-82
2022/07/26 09:11:30;;;;;;;2.90;0.68;;;;;;;;;;4907678;28;20211;-84
2022/07/26 09:14:03;;;;;;;1.15;0.50;;;;;;;;;;4939939;28;20246;-80
2022/07/26 09:16:31;;;;;;;1.65;0.60;;;;;;;;;;4926018;29;20233;-84
2022/07/26 09:19:21;;;;;;;1.88;0.50;;;;;;;;;;4926012;29;20238;-83
2022/07/26 09:21:46;;;;;;;1.92;0.60;;;;;;;;;;4907204;29;20253;-80
2022/07/26 09:24:12;;;;;;;0.80;0.50;;;;;;;;;;4908521;28;20846;-83
2022/07/26 09:26:41;;;;;;;1.75;0.45;;;;;;;;;;4910295;28;20892;-84
2022/07/26 09:29:12;;;;;;;0.77;0.47;;;;;;;;;;4922324;28;20223;-83
2022/07/26 09:31:43;;;;;;;1.75;0.60;;;;;;;;;;4923591;29;20226;-80
2022/07/26 09:34:08;;;;;;;1.83;0.60;;;;;;;;;;4936639;28;20254;-81
2022/07/26 09:36:50;;;;;;;1.48;0.60;;;;;;;;;;4926969;29;20850;-82
2022/07/26 09:39:18;;;;;;;2.38;0.63;;;;;;;;;;4924102;29;20246;-82
2022/07/26 09:41:55;;;;;;;3.83;0.60;;;;;;;;;;4936521;29;20306;-83
2022/07/26 09:44:24;;;;;;;2.50;0.85;;;;;;;;;;4938844;28;20285;-83
2022/07/26 09:46:55;;;;;;;2.38;0.75;;;;;;;;;;4930462;29;20281;-83
2022/07/26 09:49:23;;;;;;;1.33;0.60;;;;;;;;;;4912331;28;20235;-83
2022/07/26 09:51:50;;;;;;;3.13;0.95;;;;;;;;;;4912104;29;20215;-81
2022/07/26 09:54:34;;;;;;;4.25;1.00;;;;;;;;;;4933041;28;20234;-82
2022/07/26 09:57:02;;;;;;;1.33;0.63;;;;;;;;;;4924956;29;20603;-84
2022/07/26 09:59:28;;;;;;;3.38;1.08;;;;;;;;;;4924528;29;20273;-82
2022/07/26 10:01:54;;;;;;;3.35;1.08;;;;;;;;;;4896880;28;20238;-81
2022/07/26 10:04:20;;;;;;;1.92;0.70;;;;;;;;;;4923725;29;20222;-80
2022/07/26 10:06:45;;;;;;;2.65;0.70;;;;;;;;;;4932200;29;20245;-83
2022/07/26 10:09:13;;;;;;;2.53;0.70;;;;;;;;;;4914177;28;20214;-84
2022/07/26 10:11:44;;;;;;;0.63;0.40;;;;;;;;;;4921773;29;20230;-83
2022/07/26 10:14:35;;;;;;;2.63;0.68;;;;;;;;;;4932209;28;20238;-80
2022/07/26 10:17:18;;;;;;;0.57;0.50;;;;;;;;;;4945938;28;20255;-80
2022/07/26 10:19:44;;;;;;;1.42;0.50;;;;;;;;;;4949014;28;20277;-83
2022/07/26 10:22:29;;;;;;;1.73;0.70;;;;;;;;;;4917335;29;20223;-83
2022/07/26 10:24:54;;;;;;;2.45;0.60;;;;;;;;;;4934852;29;20227;-80
2022/07/26 10:27:40;;;;;;;0.73;0.50;;;;;;;;;;4934605;28;20223;-81
2022/07/26 10:30:18;;;;;;;1.27;0.57;;;;;;;;;;4929922;28;20287;-83
2022/07/26 10:33:12;;;;;;;1.23;0.40;;;;;;;;;;4938073;29;20222;-85
2022/07/26 10:35:43;;;;;;;3.35;0.45;;;;;;;;;;4939741;29;20235;-83
2022/07/26 10:38:25;;;;;;;1.83;0.68;;;;;;;;;;4903887;28;20701;-83
2022/07/26 10:41:07;;;;;;;1.73;0.60;;;;;;;;;;4909654;29;20238;-82
2022/07/26 10:43:35;;;;;;;1.95;0.70;;;;;;;;;;4943602;29;20226;-82
2022/07/26 10:46:19;;;;;;;2.17;0.82;;;;;;;;;;4929235;28;20227;-82
2022/07/26 10:49:02;;;;;;;2.13;0.90;;;;;;;;;;4939733;29;20262;-81
2022/07/26 10:51:35;;;;;;;2.92;0.60;;;;;;;;;;4936129;29;20708;-82
2022/07/26 10:54:03;;;;;;;1.25;0.60;;;;;;;;;;4940592;28;20226;-83
2022/07/26 10:56:29;;;;;;;1.77;0.68;;;;;;;;;;4924325;29;20227;-84
2022/07/26 10:58:58;;;;;;;3.75;0.60;;;;;;;;;;4923450;28;20285;-86
2022/07/26 11:01:40;;;;;;;1.38;0.55;;;;;;;;;;4907344;29;20246;-84
2022/07/26 11:04:07;;;;;;;1.35;0.68;;;;;;;;;;4958733;28;20262;-82
2022/07/26 11:06:33;;;;;;;2.72;0.85;;;;;;;;;;4923107;29;20722;-82
2022/07/26 11:09:08;;;;;;;1.95;0.90;;;;;;;;;;4936697;28;20207;-82
2022/07/26 11:11:34;;;;;;;1.50;0.57;;;;;;;;;;4934289;29;20230;-82
2022/07/26 11:14:15;;;;;;;0.93;0.50;;;;;;;;;;4931822;28;20345;-79
2022/07/26 11:16:48;;;;;;;0.75;0.40;;;;;;;;;;4933749;29;20237;-82
2022/07/26 11:19:15;;;;;;;2.15;0.50;;;;;;;;;;4931439;28;20859;-80
2022/07/26 11:21:41;;;;;;;1.98;0.50;;;;;;;;;;4910282;29;20580;-80
2022/07/26 11:24:10;;;;;;;1.38;0.50;;;;;;;;;;4936115;28;20237;-82
2022/07/26 11:26:42;;;;;;;2.17;0.80;;;;;;;;;;4915794;29;20584;-81
2022/07/26 11:29:08;;;;;;;1.40;0.70;;;;;;;;;;4929220;28;20630;-82
2022/07/26 11:31:37;;;;;;;1.95;0.65;;;;;;;;;;4906260;29;20228;-82
2022/07/26 11:34:07;;;;;;;1.70;0.70;;;;;;;;;;4918310;28;20226;-82
2022/07/26 11:36:43;;;;;;;1.30;0.68;;;;;;;;;;4926063;29;20282;-82
2022/07/26 11:39:12;;;;;;;3.22;0.70;;;;;;;;;;4923997;28;20236;-82
2022/07/26 11:41:41;;;;;;;1.25;0.60;;;;;;;;;;4911338;29;20233;-84
2022/07/26 11:44:06;;;;;;;1.50;0.77;;;;;;;;;;4905000;29;20231;-84
2022/07/26 11:46:37;;;;;;;1.25;0.50;;;;;;;;;;4906325;29;20242;-82
2022/07/26 11:49:04;;;;;;;0.73;0.60;;;;;;;;;;4924576;28;20230;-82
2022/07/26 11:51:30;;;;;;;1.08;0.47;;;;;;;;;;4928431;29;20238;-81
2022/07/26 11:54:01;;;;;;;2.30;0.55;;;;;;;;;;4926368;29;20250;-82
2022/07/26 11:56:27;;;;;;;2.13;0.60;;;;;;;;;;4911864;29;20596;-82
2022/07/26 11:58:58;;;;;;;2.70;0.60;;;;;;;;;;4916909;29;20612;-81
2022/07/26 12:01:24;;;;;;;1.23;0.60;;;;;;;;;;4922122;28;20222;-79
2022/07/26 12:03:51;;;;;;;1.13;0.70;;;;;;;;;;4936013;29;20587;-82
2022/07/26 12:06:24;;;;;;;2.00;0.60;;;;;;;;;;4936484;28;20625;-82
2022/07/26 12:08:57;;;;;;;1.38;0.80;;;;;;;;;;4923600;29;20231;-81
2022/07/26 12:11:25;;;;;;;1.45;0.73;;;;;;;;;;4906745;29;20608;-83
2022/07/26 12:13:50;;;;;;;1.00;0.70;;;;;;;;;;4900006;28;20236;-81
2022/07/26 12:16:35;;;;;;;3.08;0.70;;;;;;;;;;4941134;28;20219;-82
2022/07/26 12:19:02;;;;;;;2.55;0.88;;;;;;;;;;4919021;29;20254;-83
2022/07/26 12:21:40;;;;;;;2.53;0.80;;;;;;;;;;4949934;28;20251;-81
2022/07/26 12:24:08;;;;;;;3.75;0.68;;;;;;;;;;4926767;28;20234;-81
2022/07/26 12:26:36;;;;;;;2.58;0.90;;;;;;;;;;4941773;29;20233;-81
2022/07/26 12:29:25;;;;;;;2.05;0.80;;;;;;;;;;4924148;29;20238;-84
2022/07/26 12:32:06;;;;;;;1.50;0.80;;;;;;;;;;4927775;29;20259;-83
2022/07/26 12:34:32;;;;;;;2.05;0.75;;;;;;;;;;4933104;29;20238;-79
2022/07/26 12:37:24;;;;;;;4.05;0.90;;;;;;;;;;4941308;29;20339;-83
2022/07/26 12:40:08;;;;;;;3.22;0.77;;;;;;;;;;4925091;29;20231;-83
2022/07/26 12:42:43;;;;;;;7.30;3.67;;;;;;;;;;4929178;28;20312;-81
2022/07/26 12:45:10;;;;;;;1.70;0.77;;;;;;;;;;4926838;28;20226;-81
2022/07/26 12:47:36;;;;;;;3.90;0.70;;;;;;;;;;4922904;29;20228;-82
2022/07/26 12:50:07;;;;;;;2.75;0.80;;;;;;;;;;4925378;28;20650;-83
2022/07/26 12:52:35;;;;;;;2.33;0.80;;;;;;;;;;4921928;29;20219;-86
2022/07/26 12:55:03;;;;;;;2.63;1.10;;;;;;;;;;4914182;28;20325;-84
2022/07/26 12:57:29;;;;;;;2.30;1.20;;;;;;;;;;4942589;28;20234;-83
2022/07/26 12:59:55;;;;;;;2.05;1.00;;;;;;;;;;4907270;28;20223;-83
2022/07/26 13:02:23;;;;;;;2.65;1.10;;;;;;;;;;4909573;28;20247;-80
2022/07/26 13:04:49;;;;;;;3.47;0.93;;;;;;;;;;4922612;29;20227;-83
2022/07/26 13:07:15;;;;;;;1.45;0.88;;;;;;;;;;4907537;28;20215;-81
2022/07/26 13:09:42;;;;;;;1.70;0.90;;;;;;;;;;4904810;29;20211;-82
2022/07/26 13:12:08;;;;;;;1.58;0.90;;;;;;;;;;4927036;28;20231;-79
2022/07/26 13:14:34;;;;;;;1.92;0.95;;;;;;;;;;4909664;29;20318;-83
2022/07/26 13:17:00;;;;;;;2.47;0.85;;;;;;;;;;4930058;29;20236;-81
2022/07/26 13:19:26;;;;;;;2.95;1.25;;;;;;;;;;4933703;28;20578;-82
2022/07/26 13:21:52;;;;;;;1.50;0.85;;;;;;;;;;4945120;29;20227;-80
2022/07/26 13:24:17;;;;;;;4.20;0.90;;;;;;;;;;4948566;28;20226;-82
2022/07/26 13:26:45;;;;;;;2.45;0.95;;;;;;;;;;4928303;29;20226;-84
2022/07/26 13:29:11;;;;;;;3.88;1.05;;;;;;;;;;4951779;28;20268;-80
2022/07/26 13:31:37;;;;;;;3.03;1.20;;;;;;;;;;4928935;29;20233;-82
2022/07/26 13:34:03;;;;;;;5.20;1.10;;;;;;;;;;4918377;28;20199;-81
2022/07/26 13:36:29;;;;;;;3.25;1.27;;;;;;;;;;4934210;29;20239;-80
2022/07/26 13:38:55;;;;;;;4.85;1.33;;;;;;;;;;4927731;28;20290;-83
2022/07/26 13:41:20;;;;;;;4.82;1.23;;;;;;;;;;4914140;29;20237;-82
2022/07/26 13:43:46;;;;;;;3.83;1.45;;;;;;;;;;4931129;29;20265;-80
2022/07/26 13:46:11;;;;;;;4.20;1.48;;;;;;;;;;4937033;28;20294;-80
2022/07/26 13:48:37;;;;;;;4.50;1.45;;;;;;;;;;4939643;29;20227;-81
2022/07/26 13:51:03;;;;;;;6.00;1.30;;;;;;;;;;4931483;28;20238;-83
2022/07/26 13:53:29;;;;;;;5.65;1.50;;;;;;;;;;4929606;29;20331;-81
2022/07/26 13:55:54;;;;;;;7.30;1.45;;;;;;;;;;4910308;29;20226;-79
2022/07/26 13:58:20;;;;;;;4.07;1.40;;;;;;;;;;4907713;28;20238;-83
2022/07/26 14:00:46;;;;;;;3.75;1.48;;;;;;;;;;4923063;29;20219;-80
2022/07/26 14:03:14;;;;;;;2.33;1.20;;;;;;;;;;4920978;28;20258;-81
2022/07/26 14:05:39;;;;;;;9.55;1.50;;;;;;;;;;4925927;29;20237;-81
2022/07/26 14:08:05;;;;;;;2.72;1.50;;;;;;;;;;4925197;28;20222;-82
2022/07/26 14:10:31;;;;;;;1.95;1.20;;;;;;;;;;4912263;29;20219;-82
2022/07/26 14:13:04;;;;;;;5.05;1.60;;;;;;;;;;4924643;28;20240;-82
2022/07/26 14:15:29;;;;;;;4.97;1.75;;;;;;;;;;4926781;29;20238;-81
2022/07/26 14:17:55;;;;;;;4.78;1.55;;;;;;;;;;4937709;29;20306;-81
2022/07/26 14:20:20;;;;;;;5.03;1.40;;;;;;;;;;4921440;28;20222;-82
2022/07/26 14:22:46;;;;;;;3.40;1.20;;;;;;;;;;4904049;29;20259;-82
2022/07/26 14:25:16;;;;;;;4.30;1.40;;;;;;;;;;4892378;28;20234;-84
2022/07/26 14:27:41;;;;;;;3.35;1.48;;;;;;;;;;4922026;29;20258;-81
2022/07/26 14:30:07;;;;;;;2.42;1.40;;;;;;;;;;4957020;28;20619;-82
2022/07/26 14:32:38;;;;;;;4.28;1.55;;;;;;;;;;4911951;29;20290;-81
2022/07/26 14:35:04;;;;;;;5.25;1.30;;;;;;;;;;4927060;28;20226;-81
2022/07/26 14:37:30;;;;;;;4.05;1.40;;;;;;;;;;4905793;29;20215;-82
2022/07/26 14:39:58;;;;;;;4.80;1.30;;;;;;;;;;4904812;29;20231;-81
2022/07/26 14:42:23;;;;;;;3.35;1.35;;;;;;;;;;4921328;28;20231;-82
2022/07/26 14:44:49;;;;;;;3.58;1.33;;;;;;;;;;4914580;29;20282;-82
2022/07/26 14:47:14;;;;;;;6.35;1.55;;;;;;;;;;4909514;28;20718;-81
2022/07/26 14:49:40;;;;;;;2.95;1.23;;;;;;;;;;4939387;29;20692;-81